Time;durP1;ratioP1;P1;durP2;ratioP2;P2;SDS_P1;SDS_P2;PMS_P1;PMS_P2;Temp;Humidity;BMP_temperature;BMP_pressure;BME280_temperature;BME280_humidity;BME280_pressure;Samples;Min_cycle;Max_cycle;Signal;HPM_P1;HPM_P2
2022/04/13 00:02:17;;;;;;;15.15;7.57;;;;;;;14.88;59.26;101089.69;5026819;28;20013;-78
2022/04/13 00:04:42;;;;;;;11.65;6.38;;;;;;;14.85;59.45;101085.28;5026583;28;20033;-78
2022/04/13 00:07:07;;;;;;;12.25;6.80;;;;;;;14.78;60.28;101086.97;5026610;28;20405;-78
2022/04/13 00:09:33;;;;;;;12.95;6.90;;;;;;;14.77;59.92;101085.22;5019372;28;20260;-78
2022/04/13 00:11:59;;;;;;;13.20;6.75;;;;;;;14.71;59.57;101077.28;5022869;28;20038;-78
2022/04/13 00:14:24;;;;;;;13.10;6.80;;;;;;;14.70;59.71;101083.41;5015360;28;20025;-78
2022/04/13 00:16:51;;;;;;;17.25;9.18;;;;;;;14.66;60.08;101089.47;5024155;28;20211;-78
2022/04/13 00:19:17;;;;;;;15.10;6.40;;;;;;;14.65;60.13;101097.34;5012460;28;20259;-78
2022/04/13 00:21:42;;;;;;;17.90;7.60;;;;;;;14.57;60.75;101095.47;5023136;28;20157;-78
2022/04/13 00:24:08;;;;;;;16.33;8.48;;;;;;;14.52;61.08;101089.28;5014208;28;20272;-78
2022/04/13 00:26:33;;;;;;;14.32;7.53;;;;;;;14.48;60.98;101099.72;5020875;28;20022;-78
2022/04/13 00:28:59;;;;;;;14.15;7.55;;;;;;;14.40;61.54;101097.88;5022822;28;20096;-78
2022/04/13 00:31:24;;;;;;;15.52;6.32;;;;;;;14.37;61.61;101097.84;5015567;28;20063;-78
2022/04/13 00:33:49;;;;;;;11.15;6.65;;;;;;;14.35;61.72;101110.06;5016263;28;20034;-78
2022/04/13 00:36:15;;;;;;;14.13;6.07;;;;;;;14.36;61.47;101105.69;5011342;28;20207;-78
2022/04/13 00:38:40;;;;;;;12.88;5.60;;;;;;;14.36;61.58;101103.09;5010477;28;20026;-78
2022/04/13 00:41:05;;;;;;;14.82;6.43;;;;;;;14.36;61.39;101108.31;5012255;28;20030;-78
2022/04/13 00:43:31;;;;;;;14.82;7.25;;;;;;;14.31;61.44;101100.41;5009523;28;20050;-78
2022/04/13 00:45:56;;;;;;;11.45;6.38;;;;;;;14.26;61.88;101108.22;5021031;28;20025;-78
2022/04/13 00:48:31;;;;;;;14.70;7.13;;;;;;;14.22;62.17;101116.91;5013743;28;20018;-78
2022/04/13 00:50:57;;;;;;;13.43;6.60;;;;;;;14.16;62.48;101115.94;5016473;28;20028;-78
2022/04/13 00:53:26;;;;;;;14.07;6.10;;;;;;;14.13;62.52;101118.50;5020429;28;20271;-78
2022/04/13 00:55:56;;;;;;;11.93;6.55;;;;;;;14.08;62.73;101124.56;5010774;28;20197;-78
2022/04/13 00:58:24;;;;;;;11.27;6.20;;;;;;;14.06;63.17;101131.53;5021144;28;20013;-81
2022/04/13 01:00:50;;;;;;;13.02;6.28;;;;;;;14.05;62.94;101126.28;5013988;28;20216;-81
2022/04/13 01:03:18;;;;;;;12.93;6.43;;;;;;;14.06;63.07;101134.16;5009318;28;20272;-81
2022/04/13 01:05:46;;;;;;;12.00;6.00;;;;;;;14.05;63.09;101132.38;5014011;28;20157;-81
2022/04/13 01:08:12;;;;;;;14.70;6.15;;;;;;;14.06;63.00;101139.41;5012988;28;20029;-81
2022/04/13 01:10:40;;;;;;;14.20;6.15;;;;;;;14.05;63.30;101148.13;5014914;28;20302;-81
2022/04/13 01:13:05;;;;;;;13.25;6.40;;;;;;;14.04;63.46;101141.09;5020561;28;20136;-81
2022/04/13 01:15:31;;;;;;;11.85;6.68;;;;;;;14.05;63.60;101153.34;5020923;28;20137;-81
2022/04/13 01:17:56;;;;;;;13.43;6.72;;;;;;;14.05;63.32;101142.88;5009362;28;20044;-81
2022/04/13 01:20:23;;;;;;;12.50;6.00;;;;;;;14.05;64.10;101161.22;5012355;28;20034;-81
2022/04/13 01:22:48;;;;;;;13.25;6.82;;;;;;;14.02;63.72;101155.94;5011813;28;20042;-81
2022/04/13 01:25:13;;;;;;;12.38;6.80;;;;;;;14.03;64.02;101168.19;5018395;28;20037;-81
2022/04/13 01:27:39;;;;;;;17.50;7.97;;;;;;;14.01;64.46;101167.25;5018905;28;20208;-81
2022/04/13 02:20:32;;;;;;;17.73;8.65;;;;;;;13.65;68.66;101226.06;4968533;28;20057;-78
2022/04/13 02:22:57;;;;;;;14.90;8.65;;;;;;;13.59;68.96;101230.34;5007517;28;20216;-78
2022/04/13 02:25:23;;;;;;;16.15;8.93;;;;;;;13.57;69.09;101225.06;5012797;28;20215;-78
2022/04/13 02:27:48;;;;;;;17.08;9.65;;;;;;;13.53;69.32;101221.50;5019499;28;20320;-78
2022/04/13 02:30:13;;;;;;;16.17;9.60;;;;;;;13.50;70.10;101224.06;5019796;28;20268;-78
2022/04/13 02:32:40;;;;;;;15.48;9.25;;;;;;;13.44;69.68;101217.84;5023974;28;20153;-78
2022/04/13 02:35:06;;;;;;;14.88;9.10;;;;;;;13.42;69.84;101232.66;5024008;28;20060;-78
2022/04/13 02:37:31;;;;;;;13.50;9.05;;;;;;;13.38;70.21;101232.59;5022823;28;20014;-81
2022/04/13 02:39:57;;;;;;;15.38;9.88;;;;;;;13.36;70.56;101222.94;5021944;28;20021;-81
2022/04/13 02:42:22;;;;;;;18.60;10.02;;;;;;;13.32;70.29;101232.41;5011935;28;20340;-81
2022/04/13 02:44:47;;;;;;;16.38;10.00;;;;;;;13.29;70.35;101234.13;5011713;28;20022;-81
2022/04/13 02:47:12;;;;;;;18.02;10.10;;;;;;;13.29;70.37;101234.13;5017172;28;20029;-81
2022/04/13 02:49:38;;;;;;;14.95;9.30;;;;;;;13.25;70.93;101237.53;5016354;28;20061;-81
2022/04/13 02:52:04;;;;;;;18.20;9.75;;;;;;;13.22;70.68;101247.09;5010978;28;20047;-81
2022/04/13 02:54:29;;;;;;;17.88;10.02;;;;;;;13.20;70.82;101240.06;5023495;28;20030;-81
2022/04/13 02:56:55;;;;;;;17.75;10.35;;;;;;;13.16;70.83;101240.84;5022548;28;20025;-81
2022/04/13 02:59:20;;;;;;;17.05;9.88;;;;;;;13.11;71.20;101243.38;5018556;28;20022;-81
2022/04/13 03:01:46;;;;;;;16.27;9.70;;;;;;;13.08;71.38;101243.31;5011997;28;20022;-82
2022/04/13 03:04:13;;;;;;;17.27;10.07;;;;;;;13.05;71.57;101241.53;5016200;28;20022;-81
2022/04/13 03:06:39;;;;;;;15.43;9.38;;;;;;;13.05;71.10;101248.50;5015404;28;20085;-81
2022/04/13 03:09:04;;;;;;;15.48;10.13;;;;;;;13.03;71.28;101243.25;5021290;28;20088;-81
2022/04/13 03:11:30;;;;;;;16.55;9.70;;;;;;;12.97;71.52;101243.09;5026284;28;20331;-81
2022/04/13 03:13:56;;;;;;;18.13;9.70;;;;;;;12.94;71.03;101243.03;5025978;28;20037;-81
2022/04/13 03:16:21;;;;;;;17.33;10.18;;;;;;;12.88;71.10;101240.31;5014476;28;20264;-81
2022/04/13 03:18:47;;;;;;;15.30;9.65;;;;;;;12.82;71.24;101242.81;5025419;28;20030;-81
2022/04/13 03:21:12;;;;;;;17.13;9.68;;;;;;;12.81;71.60;101249.75;5017497;28;20041;-81
2022/04/13 03:23:37;;;;;;;15.98;10.00;;;;;;;12.76;71.68;101235.72;5026624;28;20094;-81
2022/04/13 03:26:03;;;;;;;15.48;9.40;;;;;;;12.73;71.73;101247.81;5027324;28;20018;-81
2022/04/13 03:28:28;;;;;;;15.57;10.07;;;;;;;12.65;71.86;101237.22;5026980;28;20022;-81
2022/04/13 03:30:53;;;;;;;16.38;10.38;;;;;;;12.62;72.02;101231.91;5019978;28;20216;-81
2022/04/13 03:33:19;;;;;;;15.85;10.63;;;;;;;12.57;71.63;101239.66;5018608;28;20055;-81
2022/04/13 03:35:44;;;;;;;19.63;11.85;;;;;;;12.54;72.11;101239.56;5018743;28;20022;-81
2022/04/13 03:38:09;;;;;;;16.58;9.88;;;;;;;12.43;71.89;101236.75;5018971;28;20117;-81
2022/04/13 03:40:35;;;;;;;16.20;9.30;;;;;;;12.34;72.19;101244.38;5027159;28;20203;-81
2022/04/13 03:43:00;;;;;;;16.98;9.90;;;;;;;12.24;72.84;101253.72;5027183;28;20025;-81
2022/04/13 03:45:25;;;;;;;15.27;10.15;;;;;;;12.17;72.57;101257.03;5014537;28;20193;-81
2022/04/13 03:47:51;;;;;;;14.75;10.05;;;;;;;12.13;72.26;101257.81;5022805;28;20057;-81
2022/04/13 03:50:17;;;;;;;14.40;9.93;;;;;;;12.06;72.99;101262.00;5023037;28;20013;-81
2022/04/13 03:52:43;;;;;;;17.92;10.20;;;;;;;12.00;72.95;101267.09;5019177;28;20125;-81
2022/04/13 03:55:11;;;;;;;17.80;10.95;;;;;;;11.95;73.43;101264.38;5026778;28;20109;-81
2022/04/13 03:57:36;;;;;;;15.40;10.60;;;;;;;11.96;73.27;101260.91;5026666;28;20212;-81
2022/04/13 04:00:04;;;;;;;18.27;10.57;;;;;;;11.95;73.35;101266.09;5020502;28;20022;-81
2022/04/13 04:02:29;;;;;;;15.98;9.93;;;;;;;11.93;73.25;101268.66;5016859;28;20033;-81
2022/04/13 04:04:55;;;;;;;13.38;9.27;;;;;;;11.89;72.87;101273.72;5026127;28;20014;-81
2022/04/13 04:07:20;;;;;;;13.48;9.32;;;;;;;11.81;72.73;101269.19;5025116;28;20021;-81
2022/04/13 04:09:45;;;;;;;11.20;8.43;;;;;;;11.72;72.32;101271.59;5020985;28;20034;-81
2022/04/13 04:12:11;;;;;;;18.60;10.02;;;;;;;11.64;73.18;101273.09;5018576;28;20112;-81
2022/04/13 04:14:36;;;;;;;14.80;9.43;;;;;;;11.51;73.30;101279.72;5016356;28;20024;-81
2022/04/13 04:17:02;;;;;;;20.25;10.60;;;;;;;11.43;74.39;101283.88;5023805;28;20106;-78
2022/04/13 04:19:27;;;;;;;20.25;10.38;;;;;;;11.40;74.99;101289.00;5024433;28;20034;-78
2022/04/13 04:21:54;;;;;;;18.10;10.10;;;;;;;11.41;74.87;101288.16;5023990;28;20314;-77
2022/04/13 04:24:20;;;;;;;17.92;10.52;;;;;;;11.38;75.64;101301.13;5013645;28;20069;-77
2022/04/13 04:26:46;;;;;;;20.48;11.05;;;;;;;11.31;75.73;101295.72;5018588;28;20037;-78
2022/04/13 04:29:11;;;;;;;14.77;10.23;;;;;;;11.20;75.76;101289.31;5018314;28;20014;-78
2022/04/13 04:31:52;;;;;;;12.55;9.05;;;;;;;11.09;76.17;101293.34;5015260;28;20212;-78
2022/04/13 04:34:20;;;;;;;17.63;9.90;;;;;;;11.06;77.02;101299.34;5024707;28;20072;-77
2022/04/13 04:36:45;;;;;;;18.95;9.90;;;;;;;10.99;77.04;101305.22;5024794;28;20014;-77
2022/04/13 04:39:11;;;;;;;17.15;10.45;;;;;;;10.95;77.25;101296.44;5017864;28;20152;-77
2022/04/13 04:41:36;;;;;;;17.45;10.50;;;;;;;10.94;77.94;101310.31;5015721;28;20264;-78
2022/04/13 04:44:02;;;;;;;22.00;10.57;;;;;;;10.96;78.50;101316.47;5017686;28;20010;-78
2022/04/13 04:46:28;;;;;;;17.23;9.73;;;;;;;10.96;78.46;101312.97;5016555;28;20133;-78
2022/04/13 04:48:53;;;;;;;16.73;9.32;;;;;;;11.02;78.57;101320.09;5014843;28;20275;-78
2022/04/13 04:51:19;;;;;;;15.35;9.32;;;;;;;11.04;78.54;101324.50;5015608;28;20024;-78
2022/04/13 04:53:47;;;;;;;14.55;8.85;;;;;;;11.02;78.69;101328.81;5016808;28;20041;-78
2022/04/13 04:56:12;;;;;;;16.20;9.10;;;;;;;11.05;78.11;101330.59;5016612;28;20029;-78
2022/04/13 04:58:37;;;;;;;15.32;9.40;;;;;;;11.02;78.40;101333.13;5011828;28;20013;-78
2022/04/13 05:01:03;;;;;;;17.95;9.57;;;;;;;10.99;78.62;101339.13;5017765;28;20176;-78
2022/04/13 05:03:28;;;;;;;19.00;9.77;;;;;;;10.95;78.66;101340.78;5010996;28;20072;-78
2022/04/13 05:05:53;;;;;;;17.83;9.80;;;;;;;10.98;78.91;101342.59;5021616;28;20292;-77
2022/04/13 05:08:18;;;;;;;15.95;9.43;;;;;;;11.01;79.12;101341.78;5011831;28;20173;-77
2022/04/13 05:10:50;;;;;;;18.63;9.98;;;;;;;11.01;79.39;101347.00;5023006;28;20026;-77
2022/04/13 05:13:16;;;;;;;15.93;9.63;;;;;;;11.02;79.19;101348.78;5024721;28;20030;-77
2022/04/13 05:15:42;;;;;;;19.17;9.80;;;;;;;11.05;79.27;101354.06;5023694;28;20025;-77
2022/04/13 05:18:07;;;;;;;15.68;9.75;;;;;;;11.06;79.75;101346.28;5013153;28;20173;-78
2022/04/13 05:20:32;;;;;;;16.25;9.30;;;;;;;11.07;79.34;101358.50;5017522;28;20022;-78
2022/04/13 05:22:57;;;;;;;17.15;10.63;;;;;;;11.10;79.58;101360.31;5024777;28;20025;-78
2022/04/13 05:25:23;;;;;;;18.67;10.93;;;;;;;11.13;79.76;101366.50;5024323;28;20022;-78
2022/04/13 05:27:49;;;;;;;17.73;11.48;;;;;;;11.20;79.84;101359.75;5024905;28;20018;-78
2022/04/13 05:30:14;;;;;;;20.23;12.20;;;;;;;11.25;80.15;101367.69;5022069;28;20018;-78
2022/04/13 05:32:56;;;;;;;22.40;12.65;;;;;;;11.33;79.99;101370.56;5009422;28;20077;-77
2022/04/13 05:35:22;;;;;;;19.88;12.32;;;;;;;11.38;80.54;101372.44;5018724;28;20052;-77
2022/04/13 05:37:47;;;;;;;24.40;13.50;;;;;;;11.41;80.48;101377.75;5013403;28;20269;-77
2022/04/13 05:40:12;;;;;;;20.65;12.63;;;;;;;11.47;80.94;101384.84;5019913;28;20018;-77
2022/04/13 05:42:38;;;;;;;21.60;12.60;;;;;;;11.51;80.61;101384.09;5010899;28;20045;-77
2022/04/13 05:45:03;;;;;;;20.02;13.40;;;;;;;11.56;80.98;101392.97;5019354;28;20060;-77
2022/04/13 05:47:29;;;;;;;23.00;13.38;;;;;;;11.61;80.92;101391.34;5010820;28;20021;-77
2022/04/13 05:49:54;;;;;;;20.63;14.00;;;;;;;11.66;81.26;101388.91;5022379;28;20049;-77
2022/04/13 05:52:20;;;;;;;22.80;14.23;;;;;;;11.71;81.13;101384.66;5021829;28;20021;-77
2022/04/13 05:54:45;;;;;;;24.02;15.85;;;;;;;11.78;81.02;101390.97;5021203;28;20215;-78
2022/04/13 05:57:10;;;;;;;25.90;14.65;;;;;;;11.84;80.36;101391.13;5023768;28;20013;-81
2022/04/13 05:59:36;;;;;;;22.33;15.50;;;;;;;11.92;80.99;101394.81;5021737;28;20257;-81
2022/04/13 06:02:02;;;;;;;23.75;16.58;;;;;;;12.00;80.61;101398.53;5018406;28;20334;-81
2022/04/13 06:04:27;;;;;;;26.10;17.05;;;;;;;12.06;80.79;101400.44;5019892;28;20034;-81
2022/04/13 06:06:57;;;;;;;26.83;16.63;;;;;;;12.13;80.70;101407.59;5014449;28;20089;-81
2022/04/13 06:09:23;;;;;;;25.13;17.20;;;;;;;12.21;80.26;101407.81;5012052;28;20021;-81
2022/04/13 06:11:49;;;;;;;25.58;17.70;;;;;;;12.30;80.94;101404.53;5017538;28;20060;-81
2022/04/13 06:14:15;;;;;;;29.42;19.08;;;;;;;12.40;80.48;101406.53;5021930;28;20281;-81
2022/04/13 06:16:40;;;;;;;29.60;18.92;;;;;;;12.51;80.39;101414.63;5020542;28;20022;-81
2022/04/13 06:19:05;;;;;;;30.65;19.13;;;;;;;12.59;80.01;101418.34;5013649;28;20096;-81
2022/04/13 06:21:31;;;;;;;33.22;20.50;;;;;;;12.66;79.27;101422.88;5015514;28;20050;-81
2022/04/13 06:23:56;;;;;;;28.15;19.50;;;;;;;12.74;79.20;101425.66;5023971;28;20021;-81
2022/04/13 06:26:21;;;;;;;33.45;20.73;;;;;;;12.81;79.00;101429.31;5022208;28;20092;-81
2022/04/13 06:28:46;;;;;;;30.10;19.67;;;;;;;12.93;79.15;101428.72;5022780;28;20104;-81
2022/04/13 06:31:12;;;;;;;29.65;20.60;;;;;;;13.03;79.22;101433.31;5022647;28;20087;-81
2022/04/13 06:33:38;;;;;;;32.15;20.95;;;;;;;13.07;78.77;101429.91;5023194;28;20253;-81
2022/04/13 06:36:05;;;;;;;30.27;21.33;;;;;;;13.11;78.65;101421.28;5022389;28;20038;-81
2022/04/13 06:38:31;;;;;;;30.33;20.83;;;;;;;13.16;78.77;101435.34;5022987;28;20034;-81
2022/04/13 06:40:56;;;;;;;32.00;20.95;;;;;;;13.20;78.14;101433.69;5023930;28;20025;-81
2022/04/13 06:43:21;;;;;;;35.30;20.85;;;;;;;13.21;77.90;101443.31;5023203;28;20053;-81
2022/04/13 06:45:46;;;;;;;31.27;21.10;;;;;;;13.18;78.33;101441.50;5022018;28;20022;-81
2022/04/13 06:48:12;;;;;;;31.88;21.65;;;;;;;13.16;79.10;101445.81;5023578;28;20033;-81
2022/04/13 06:50:37;;;;;;;31.98;21.48;;;;;;;13.15;79.39;101456.25;5022731;28;20025;-81
2022/04/13 06:53:02;;;;;;;31.63;20.60;;;;;;;13.46;78.44;101460.47;5017566;28;20017;-81
2022/04/13 06:55:28;;;;;;;29.90;20.88;;;;;;;13.73;77.07;101452.31;5023548;28;20030;-81
2022/04/13 06:57:53;;;;;;;33.55;21.02;;;;;;;13.76;77.14;101458.47;5017787;28;20268;-81
2022/04/13 07:00:18;;;;;;;32.95;21.13;;;;;;;13.69;76.58;101468.81;5016602;28;20489;-81
2022/04/13 07:02:44;;;;;;;35.08;22.10;;;;;;;13.71;76.91;101469.72;5020010;28;20081;-81
2022/04/13 07:05:09;;;;;;;32.35;22.30;;;;;;;13.67;77.62;101481.00;5018071;28;20030;-81
2022/04/13 07:07:35;;;;;;;33.30;22.85;;;;;;;13.62;76.96;101485.25;5019808;28;20444;-81
2022/04/13 07:10:01;;;;;;;32.30;23.20;;;;;;;13.56;77.64;101480.75;5022360;28;20088;-81
2022/04/13 07:12:33;;;;;;;34.10;23.70;;;;;;;13.54;77.69;101492.94;5023569;28;20166;-81
2022/04/13 07:15:00;;;;;;;33.38;23.38;;;;;;;13.54;78.15;101495.56;5023646;28;20032;-81
2022/04/13 07:17:25;;;;;;;34.97;23.58;;;;;;;13.52;79.50;101488.53;5022462;28;20010;-81
2022/04/13 07:19:51;;;;;;;33.88;22.83;;;;;;;13.50;78.93;101498.09;5022299;28;20312;-81
2022/04/13 07:22:16;;;;;;;32.50;23.23;;;;;;;13.47;79.16;101501.53;5023386;28;20041;-81
2022/04/13 07:24:41;;;;;;;32.55;22.60;;;;;;;13.51;78.45;101511.22;5023260;28;20021;-81
2022/04/13 07:27:07;;;;;;;37.08;23.30;;;;;;;13.54;78.17;101519.13;5022804;28;20278;-81
2022/04/13 07:29:32;;;;;;;32.38;22.58;;;;;;;13.55;78.32;101522.63;5022166;28;20093;-81
2022/04/13 07:31:57;;;;;;;31.73;22.90;;;;;;;13.56;78.81;101524.41;5023565;28;20017;-81
2022/04/13 07:34:22;;;;;;;31.48;23.08;;;;;;;13.60;78.33;101521.00;5023377;28;20085;-82
2022/04/13 07:36:48;;;;;;;32.72;23.35;;;;;;;13.65;78.17;101518.47;5023533;28;20024;-81
2022/04/13 07:39:13;;;;;;;35.80;23.40;;;;;;;13.69;78.64;101526.44;5023375;28;20022;-82
2022/04/13 07:41:38;;;;;;;36.00;23.05;;;;;;;13.76;78.54;101532.69;5023282;28;20080;-81
2022/04/13 07:44:04;;;;;;;38.70;24.05;;;;;;;13.80;78.67;101528.41;5023453;28;20316;-81
2022/04/13 07:46:29;;;;;;;34.47;22.08;;;;;;;13.82;78.23;101519.72;5023015;28;20057;-81
2022/04/13 07:48:55;;;;;;;37.13;23.25;;;;;;;13.85;78.31;101525.03;5026821;28;20187;-81
2022/04/13 07:51:20;;;;;;;34.78;22.83;;;;;;;13.91;78.38;101532.13;5026895;28;20272;-81
2022/04/13 07:53:45;;;;;;;33.88;23.40;;;;;;;13.93;78.64;101525.19;5025668;28;20072;-81
2022/04/13 07:56:11;;;;;;;34.47;23.33;;;;;;;13.96;78.45;101525.25;5026700;28;20038;-81
2022/04/13 07:58:36;;;;;;;34.33;23.45;;;;;;;14.01;78.06;101531.47;5026792;28;20279;-82
2022/04/13 08:01:02;;;;;;;32.95;22.13;;;;;;;14.06;77.76;101529.84;5026662;28;20022;-82
2022/04/13 08:03:27;;;;;;;36.20;22.00;;;;;;;14.17;77.91;101526.53;5026491;28;20025;-82
2022/04/13 08:05:53;;;;;;;31.48;23.23;;;;;;;14.31;77.41;101537.28;5026694;28;20215;-82
2022/04/13 08:08:18;;;;;;;33.00;22.52;;;;;;;14.44;77.53;101539.31;5026660;28;20045;-82
2022/04/13 08:10:45;;;;;;;32.17;21.55;;;;;;;14.59;77.24;101549.19;5026378;28;20021;-82
2022/04/13 08:13:10;;;;;;;31.88;21.33;;;;;;;14.70;76.77;101547.69;5025401;28;20021;-82
2022/04/13 08:15:35;;;;;;;32.72;20.23;;;;;;;14.77;76.77;101538.16;5025569;28;20176;-82
2022/04/13 08:18:01;;;;;;;26.23;18.83;;;;;;;14.82;75.61;101543.50;5026363;28;20176;-82
2022/04/13 08:20:26;;;;;;;31.55;19.85;;;;;;;14.90;76.23;101550.66;5024863;28;20128;-81
2022/04/13 08:22:51;;;;;;;26.55;18.08;;;;;;;14.98;75.39;101552.53;5026253;28;20041;-82
2022/04/13 08:25:16;;;;;;;27.75;18.77;;;;;;;15.03;75.38;101551.72;5026116;28;20249;-82
2022/04/13 08:27:42;;;;;;;26.95;18.08;;;;;;;15.04;74.75;101550.88;5021201;28;20226;-82
2022/04/13 08:30:07;;;;;;;23.92;16.20;;;;;;;15.06;75.30;101557.03;5022544;28;20021;-82
2022/04/13 08:32:33;;;;;;;26.25;18.58;;;;;;;15.08;74.83;101555.31;5026219;28;20029;-81
2022/04/13 08:34:58;;;;;;;32.80;19.38;;;;;;;15.08;74.51;101560.56;5026182;28;20064;-82
2022/04/13 08:37:25;;;;;;;27.20;18.85;;;;;;;15.08;75.18;101565.81;5025074;28;20032;-81
2022/04/13 08:39:50;;;;;;;27.20;17.90;;;;;;;15.08;74.70;101565.81;5024678;28;20211;-82
2022/04/13 08:42:47;;;;;;;24.60;17.38;;;;;;;15.11;74.88;101565.00;5025560;28;20097;-82
2022/04/13 08:45:21;;;;;;;24.02;17.60;;;;;;;15.15;74.36;101556.31;5017520;28;20033;-82
2022/04/13 08:47:47;;;;;;;26.98;17.83;;;;;;;15.18;73.74;101564.22;5025529;28;20021;-78
2022/04/13 08:50:13;;;;;;;25.80;18.17;;;;;;;15.24;75.34;101568.69;5024225;28;20022;-78
2022/04/13 08:52:40;;;;;;;24.92;18.88;;;;;;;15.29;74.64;101574.88;5024387;28;20145;-78
2022/04/13 08:55:09;;;;;;;24.52;17.10;;;;;;;15.32;73.79;101569.69;5025818;28;20277;-78
2022/04/13 08:57:46;;;;;;;26.70;18.10;;;;;;;15.39;74.74;101579.41;5025473;28;20032;-78
2022/04/13 09:00:17;;;;;;;24.30;17.00;;;;;;;15.44;73.59;101572.50;5022567;28;20022;-78
2022/04/13 09:02:48;;;;;;;30.90;17.10;;;;;;;15.51;73.17;101580.47;5025759;28;20034;-78
2022/04/13 09:05:34;;;;;;;23.27;16.70;;;;;;;15.55;73.23;101583.16;5025688;28;20275;-78
2022/04/13 09:08:23;;;;;;;23.42;16.27;;;;;;;15.57;72.94;101586.72;5023658;28;20100;-78
2022/04/13 09:10:51;;;;;;;24.08;15.98;;;;;;;15.59;72.69;101594.63;5025443;28;20021;-78
2022/04/13 09:13:18;;;;;;;25.33;16.45;;;;;;;15.59;72.91;101584.97;5023906;28;20022;-78
2022/04/13 09:15:44;;;;;;;24.92;17.02;;;;;;;15.61;72.72;101582.38;5025392;28;20017;-78
2022/04/13 09:18:10;;;;;;;23.58;16.92;;;;;;;15.64;71.99;101585.94;5022341;28;20009;-78
2022/04/13 09:20:36;;;;;;;24.27;17.48;;;;;;;15.68;73.19;101591.25;5023161;28;20049;-71
2022/04/13 09:23:02;;;;;;;27.67;17.08;;;;;;;15.73;73.40;101597.44;5024175;28;20096;-72
2022/04/13 09:25:31;;;;;;;27.38;16.95;;;;;;;15.76;74.04;101601.00;5023764;28;20053;-72
2022/04/13 09:27:58;;;;;;;25.83;17.95;;;;;;;15.77;73.34;101607.13;5023184;28;20288;-72
2022/04/13 09:30:23;;;;;;;25.20;17.52;;;;;;;15.77;72.43;101600.16;5024900;28;20072;-73
2022/04/13 09:32:50;;;;;;;24.75;17.83;;;;;;;15.75;72.34;101604.47;5025437;28;20306;-72
2022/04/13 09:35:16;;;;;;;28.50;18.95;;;;;;;15.77;73.06;101610.66;5024946;28;20036;-72
2022/04/13 09:37:43;;;;;;;27.38;18.88;;;;;;;15.79;72.85;101615.97;5025163;28;20042;-72
2022/04/13 09:40:09;;;;;;;25.42;18.92;;;;;;;15.80;72.81;101615.09;5024719;28;20045;-72
2022/04/13 09:42:35;;;;;;;27.10;18.92;;;;;;;15.77;72.52;101621.16;5025439;28;20021;-72
2022/04/13 09:45:02;;;;;;;25.25;19.23;;;;;;;15.73;72.28;101619.34;5025087;28;20324;-72
2022/04/13 09:47:33;;;;;;;26.45;18.52;;;;;;;15.71;72.29;101626.31;5024843;28;20168;-72
2022/04/13 09:49:59;;;;;;;24.58;17.45;;;;;;;15.71;72.66;101628.06;5024760;28;20026;-73
2022/04/13 09:52:37;;;;;;;24.27;17.23;;;;;;;15.69;72.04;101628.03;5024810;28;20160;-72
2022/04/13 09:55:09;;;;;;;25.40;17.50;;;;;;;15.67;72.67;101628.88;5024487;28;20025;-73
2022/04/13 09:57:35;;;;;;;24.60;17.95;;;;;;;15.66;73.17;101630.63;5024730;28;20014;-71
2022/04/13 10:00:06;;;;;;;27.35;19.25;;;;;;;15.66;72.98;101625.38;5024104;28;20327;-71
2022/04/13 10:02:42;;;;;;;25.40;16.95;;;;;;;15.66;72.86;101628.00;5024546;28;20056;-71
2022/04/13 10:05:29;;;;;;;23.25;16.60;;;;;;;15.64;72.56;101624.44;5024452;28;20022;-71
2022/04/13 10:08:08;;;;;;;25.50;16.38;;;;;;;15.63;72.06;101628.84;5024380;28;20040;-71
2022/04/13 10:10:34;;;;;;;24.88;16.20;;;;;;;15.64;72.85;101632.34;5023881;28;20029;-71
2022/04/13 10:13:00;;;;;;;22.35;16.10;;;;;;;15.62;72.46;101631.44;5024068;28;20290;-71
2022/04/13 10:15:25;;;;;;;23.15;17.00;;;;;;;15.63;72.83;101643.72;5024254;28;20022;-71
2022/04/13 10:17:56;;;;;;;23.60;17.35;;;;;;;15.62;73.22;101628.81;5024437;28;20013;-71
2022/04/13 10:20:22;;;;;;;26.42;17.83;;;;;;;15.60;73.63;101627.91;5023806;28;20161;-71
2022/04/13 10:22:58;;;;;;;26.45;18.77;;;;;;;15.60;73.68;101634.03;5024625;28;20041;-71
2022/04/13 10:25:29;;;;;;;28.20;19.38;;;;;;;15.59;74.15;101632.28;5024397;28;20071;-71
2022/04/13 10:27:57;;;;;;;26.15;18.90;;;;;;;15.59;73.67;101639.28;5023702;28;20025;-72
2022/04/13 10:30:27;;;;;;;22.80;18.52;;;;;;;15.60;73.27;101633.19;5023683;28;20025;-72
2022/04/13 10:33:03;;;;;;;29.25;18.50;;;;;;;15.58;73.77;101641.03;5023667;28;20399;-81
2022/04/13 10:35:30;;;;;;;28.10;19.23;;;;;;;15.56;73.48;101640.09;5022817;28;20152;-81
2022/04/13 10:37:56;;;;;;;27.15;19.67;;;;;;;15.54;73.94;101638.31;5023790;28;20029;-81
2022/04/13 10:40:23;;;;;;;27.38;20.05;;;;;;;15.54;73.81;101643.56;5023045;28;20018;-81
2022/04/13 10:42:50;;;;;;;25.20;19.15;;;;;;;15.52;73.68;101647.91;5024068;28;20026;-81
2022/04/13 10:45:16;;;;;;;29.17;19.95;;;;;;;15.52;75.66;101655.81;5022462;28;20037;-81
2022/04/13 10:47:58;;;;;;;28.60;20.60;;;;;;;15.52;75.17;101661.06;5024003;28;20037;-81
2022/04/13 10:50:54;;;;;;;30.30;19.77;;;;;;;15.52;75.46;101650.53;5023734;28;20017;-81
2022/04/13 10:53:27;;;;;;;30.48;20.33;;;;;;;15.51;74.99;101654.94;5023762;28;20260;-81
2022/04/13 10:56:04;;;;;;;31.08;21.05;;;;;;;15.52;75.21;101659.31;5023574;28;20025;-81
2022/04/13 10:58:48;;;;;;;31.48;21.80;;;;;;;15.51;74.29;101667.16;5024064;28;20166;-81
2022/04/13 11:01:15;;;;;;;27.60;20.50;;;;;;;15.48;74.62;101671.50;5023663;28;20172;-81
2022/04/13 11:03:41;;;;;;;26.92;20.15;;;;;;;15.46;75.15;101673.22;5023994;28;20225;-81
2022/04/13 11:06:10;;;;;;;31.73;21.98;;;;;;;15.43;75.51;101673.16;5021821;28;20034;-81
2022/04/13 11:08:44;;;;;;;30.58;22.17;;;;;;;15.42;76.07;101671.38;5023473;28;20037;-81
2022/04/13 11:11:17;;;;;;;31.90;22.15;;;;;;;15.40;76.07;101678.38;5023452;28;20042;-81
2022/04/13 11:13:44;;;;;;;32.58;22.80;;;;;;;15.37;76.36;101673.06;5022520;28;20024;-81
2022/04/13 11:16:18;;;;;;;31.65;23.05;;;;;;;15.36;76.47;101676.53;5023097;28;20049;-81
2022/04/13 11:19:05;;;;;;;33.67;24.77;;;;;;;15.36;76.30;101676.53;5023499;28;20022;-81
2022/04/13 11:21:54;;;;;;;38.08;25.02;;;;;;;15.34;75.21;101667.78;5022016;28;20215;-81
2022/04/13 11:24:33;;;;;;;;;;;;;;;15.40;74.45;101672.25;5027727;28;20113;-81
2022/04/13 11:26:59;;;;;;;36.55;24.98;;;;;;;15.35;75.86;101673.91;5025010;28;19948;-81
2022/04/13 11:29:32;;;;;;;35.72;26.25;;;;;;;15.34;75.67;101670.41;5027005;28;20034;-81
2022/04/13 11:32:01;;;;;;;37.40;27.25;;;;;;;15.33;75.89;101683.50;5021408;28;20041;-81
2022/04/13 11:34:30;;;;;;;39.85;27.67;;;;;;;15.32;76.47;101681.72;5024050;28;20034;-81
2022/04/13 11:37:00;;;;;;;36.95;27.25;;;;;;;15.31;76.00;101688.72;5022363;28;20020;-81
2022/04/13 11:40:09;;;;;;;39.13;26.75;;;;;;;15.33;75.29;101691.38;5025281;28;20080;-81
2022/04/13 11:42:35;;;;;;;39.78;26.65;;;;;;;15.30;75.39;101692.19;5022267;28;20033;-81
2022/04/13 11:45:11;;;;;;;40.42;27.15;;;;;;;15.28;75.31;101696.56;5026732;28;20022;-81
2022/04/13 11:47:40;;;;;;;37.00;26.85;;;;;;;15.27;76.28;101692.16;5021854;28;20032;-81
2022/04/13 11:50:12;;;;;;;36.20;27.23;;;;;;;15.28;76.41;101693.94;5026643;28;20261;-81
2022/04/13 11:53:01;;;;;;;41.88;27.42;;;;;;;15.29;76.47;101703.56;5025350;28;20041;-80
2022/04/13 11:55:42;;;;;;;43.50;27.45;;;;;;;15.32;77.02;101700.97;5026327;28;20296;-80
2022/04/13 11:58:07;;;;;;;36.63;26.70;;;;;;;15.33;76.45;101704.50;5025823;28;20168;-80
2022/04/13 12:00:55;;;;;;;39.33;27.85;;;;;;;15.33;76.19;101707.13;5025755;28;20026;-81
2022/04/13 12:03:30;;;;;;;38.60;25.60;;;;;;;15.36;77.34;101715.06;5026182;28;20029;-81
2022/04/13 12:06:03;;;;;;;37.80;25.70;;;;;;;15.37;75.77;101714.22;5026383;28;20276;-81